Time;durP1;ratioP1;P1;durP2;ratioP2;P2;SDS_P1;SDS_P2;PMS_P1;PMS_P2;Temp;Humidity;BMP_temperature;BMP_pressure;BME280_temperature;BME280_humidity;BME280_pressure;Samples;Min_cycle;Max_cycle;Signal;HPM_P1;HPM_P2
2022/12/18 00:00:59;;;;;;;42.78;22.27;;;;;;;;;;4972498;28;20108;-55
2022/12/18 00:03:27;;;;;;;40.85;21.73;;;;;;;;;;4972433;28;20047;-54
2022/12/18 00:05:54;;;;;;;39.33;22.48;;;;;;;;;;4972435;28;20073;-54
2022/12/18 00:08:22;;;;;;;37.88;20.30;;;;;;;;;;4971338;28;20134;-54
2022/12/18 00:10:49;;;;;;;37.50;20.85;;;;;;;;;;4972267;28;20100;-51
2022/12/18 00:13:17;;;;;;;42.58;21.90;;;;;;;;;;4972458;28;20549;-53
2022/12/18 00:15:44;;;;;;;39.70;21.10;;;;;;;;;;4972288;28;20121;-54
2022/12/18 00:18:12;;;;;;;38.83;21.20;;;;;;;;;;4972487;28;20042;-54
2022/12/18 00:20:45;;;;;;;38.67;20.45;;;;;;;;;;4972431;28;20054;-54
2022/12/18 00:23:12;;;;;;;37.58;20.77;;;;;;;;;;4972412;28;20062;-54
2022/12/18 00:25:40;;;;;;;34.70;19.92;;;;;;;;;;4972356;28;20039;-54
2022/12/18 00:28:07;;;;;;;34.28;19.52;;;;;;;;;;4971999;28;20130;-54
2022/12/18 00:30:35;;;;;;;36.70;19.63;;;;;;;;;;4972236;28;20110;-52
2022/12/18 00:33:02;;;;;;;37.50;20.05;;;;;;;;;;4970902;28;20117;-51
2022/12/18 00:35:30;;;;;;;37.13;19.98;;;;;;;;;;4972442;28;20077;-54
2022/12/18 00:37:57;;;;;;;35.55;19.73;;;;;;;;;;4972122;28;20118;-54
2022/12/18 00:40:25;;;;;;;33.47;19.33;;;;;;;;;;4970708;28;20051;-53
2022/12/18 00:42:56;;;;;;;35.15;19.23;;;;;;;;;;4972145;28;20046;-53
2022/12/18 00:45:25;;;;;;;36.72;20.10;;;;;;;;;;4970906;28;20046;-52
2022/12/18 00:47:53;;;;;;;35.42;19.75;;;;;;;;;;4971553;28;20062;-54
2022/12/18 00:50:22;;;;;;;32.78;19.00;;;;;;;;;;4971890;28;20498;-54
2022/12/18 00:52:49;;;;;;;36.35;20.27;;;;;;;;;;4970590;28;20497;-53
2022/12/18 00:55:17;;;;;;;34.00;19.38;;;;;;;;;;4970599;28;20051;-52
2022/12/18 00:57:46;;;;;;;33.75;19.42;;;;;;;;;;4971839;28;20439;-53
2022/12/18 01:00:15;;;;;;;33.58;19.52;;;;;;;;;;4970503;28;20051;-52
2022/12/18 01:02:42;;;;;;;33.13;19.63;;;;;;;;;;4971708;28;20053;-53
2022/12/18 01:05:11;;;;;;;34.00;19.05;;;;;;;;;;4970259;28;20141;-52
2022/12/18 01:07:39;;;;;;;34.78;18.90;;;;;;;;;;4970656;28;20377;-54
2022/12/18 01:10:07;;;;;;;33.60;19.10;;;;;;;;;;4971237;28;20130;-54
2022/12/18 01:12:35;;;;;;;31.67;19.50;;;;;;;;;;4970285;28;20130;-52
2022/12/18 01:15:02;;;;;;;34.05;19.70;;;;;;;;;;4971535;28;20100;-49
2022/12/18 01:17:30;;;;;;;33.13;18.55;;;;;;;;;;4971431;28;20484;-52
2022/12/18 01:19:57;;;;;;;35.30;19.38;;;;;;;;;;4969817;28;20054;-52
2022/12/18 01:22:26;;;;;;;34.42;19.35;;;;;;;;;;4971479;28;20466;-52
2022/12/18 01:24:53;;;;;;;32.90;18.35;;;;;;;;;;4970127;28;20080;-55
2022/12/18 01:27:22;;;;;;;34.47;19.13;;;;;;;;;;4969786;28;20501;-53
2022/12/18 01:29:51;;;;;;;34.88;19.45;;;;;;;;;;4969913;28;20062;-55
2022/12/18 01:32:20;;;;;;;31.77;18.55;;;;;;;;;;4969956;28;20043;-55
2022/12/18 01:34:47;;;;;;;33.90;18.23;;;;;;;;;;4969931;28;20557;-53
2022/12/18 01:37:15;;;;;;;32.45;18.75;;;;;;;;;;4969956;28;20051;-54
2022/12/18 01:39:43;;;;;;;35.60;20.45;;;;;;;;;;4971180;28;20039;-54
2022/12/18 01:42:15;;;;;;;34.38;19.63;;;;;;;;;;4971105;28;20043;-54
2022/12/18 01:45:05;;;;;;;33.85;18.52;;;;;;;;;;4969718;28;20039;-49
2022/12/18 01:47:39;;;;;;;37.25;20.45;;;;;;;;;;4972289;28;20047;-54
2022/12/18 01:50:08;;;;;;;35.28;19.48;;;;;;;;;;4969768;28;20051;-53
2022/12/18 01:52:36;;;;;;;36.58;20.40;;;;;;;;;;4969737;28;20039;-54
2022/12/18 01:55:05;;;;;;;36.35;20.92;;;;;;;;;;4969589;28;20045;-52
2022/12/18 01:57:33;;;;;;;37.13;20.20;;;;;;;;;;4971140;28;20362;-55
2022/12/18 02:00:03;;;;;;;36.38;20.58;;;;;;;;;;4968833;28;20476;-55
2022/12/18 02:02:39;;;;;;;38.08;19.80;;;;;;;;;;4970964;28;20043;-53
2022/12/18 02:05:07;;;;;;;35.47;19.85;;;;;;;;;;4970900;28;20043;-52
2022/12/18 02:07:35;;;;;;;36.47;19.05;;;;;;;;;;4969394;28;20209;-54
2022/12/18 02:10:11;;;;;;;37.17;20.60;;;;;;;;;;4969472;28;20043;-54
2022/12/18 02:13:05;;;;;;;37.72;20.48;;;;;;;;;;4970846;28;20038;-52
2022/12/18 02:15:39;;;;;;;37.00;20.23;;;;;;;;;;4969536;28;20488;-54
2022/12/18 02:18:10;;;;;;;37.75;21.23;;;;;;;;;;4969517;28;20051;-52
2022/12/18 02:20:45;;;;;;;36.85;21.13;;;;;;;;;;4969569;28;20039;-51
2022/12/18 02:23:13;;;;;;;41.33;22.35;;;;;;;;;;4971064;28;20039;-53
2022/12/18 02:25:58;;;;;;;35.42;20.23;;;;;;;;;;4969355;28;20039;-54
2022/12/18 02:28:31;;;;;;;37.97;20.75;;;;;;;;;;4969349;28;20055;-54
2022/12/18 02:31:03;;;;;;;38.55;20.48;;;;;;;;;;4969443;28;20104;-54
2022/12/18 02:33:34;;;;;;;37.95;20.60;;;;;;;;;;4969385;28;20562;-54
2022/12/18 02:36:02;;;;;;;37.13;20.58;;;;;;;;;;4970787;28;20096;-54
2022/12/18 02:38:33;;;;;;;42.63;22.52;;;;;;;;;;4969214;28;20070;-54
2022/12/18 02:41:08;;;;;;;41.15;22.05;;;;;;;;;;4969448;28;20428;-53
2022/12/18 02:43:36;;;;;;;41.80;22.08;;;;;;;;;;4969536;28;20485;-54
2022/12/18 02:46:25;;;;;;;39.20;22.45;;;;;;;;;;4968882;28;20047;-53
2022/12/18 02:48:57;;;;;;;42.53;22.15;;;;;;;;;;4969005;28;20058;-53
2022/12/18 02:51:29;;;;;;;39.97;21.00;;;;;;;;;;4969051;28;20046;-49
2022/12/18 02:54:01;;;;;;;40.30;21.58;;;;;;;;;;4969026;28;20043;-49
2022/12/18 02:56:33;;;;;;;44.70;22.80;;;;;;;;;;4969040;28;20473;-48
2022/12/18 02:59:06;;;;;;;39.60;21.13;;;;;;;;;;4968987;28;20047;-50
2022/12/18 03:02:00;;;;;;;41.13;21.27;;;;;;;;;;4968944;28;20137;-51
2022/12/18 03:04:35;;;;;;;42.63;22.27;;;;;;;;;;4968757;28;20423;-50
2022/12/18 03:07:04;;;;;;;40.77;21.47;;;;;;;;;;4968615;28;20504;-51
2022/12/18 03:09:35;;;;;;;38.95;22.13;;;;;;;;;;4969904;28;20046;-51
2022/12/18 03:12:22;;;;;;;41.45;21.45;;;;;;;;;;4972134;28;20050;-53
2022/12/18 03:15:10;;;;;;;41.22;21.35;;;;;;;;;;4972076;28;20053;-51
2022/12/18 03:17:47;;;;;;;40.22;21.25;;;;;;;;;;4971956;28;20043;-54
2022/12/18 03:20:18;;;;;;;39.78;21.95;;;;;;;;;;4971985;28;20054;-52
2022/12/18 03:22:47;;;;;;;40.97;21.63;;;;;;;;;;4972238;28;20096;-51
2022/12/18 03:25:17;;;;;;;38.03;20.27;;;;;;;;;;4972009;28;20047;-49
2022/12/18 03:27:48;;;;;;;40.13;21.40;;;;;;;;;;4971869;28;20130;-54
2022/12/18 03:30:17;;;;;;;43.53;21.88;;;;;;;;;;4971836;28;20047;-54
2022/12/18 03:32:51;;;;;;;41.03;22.88;;;;;;;;;;4971879;28;20096;-54
2022/12/18 03:35:28;;;;;;;43.65;22.35;;;;;;;;;;4971554;28;20050;-54
2022/12/18 03:37:56;;;;;;;39.58;21.67;;;;;;;;;;4971564;28;20050;-54
2022/12/18 03:40:27;;;;;;;42.95;22.30;;;;;;;;;;4971674;28;20039;-53
2022/12/18 03:43:09;;;;;;;41.10;21.65;;;;;;;;;;4971720;28;20045;-54
2022/12/18 03:45:38;;;;;;;42.67;22.65;;;;;;;;;;4971518;28;20054;-55
2022/12/18 03:48:06;;;;;;;41.88;24.02;;;;;;;;;;4972784;28;20082;-48
2022/12/18 03:50:54;;;;;;;45.35;22.50;;;;;;;;;;4971376;28;20059;-52
2022/12/18 03:53:42;;;;;;;45.22;22.42;;;;;;;;;;4971394;28;20047;-53
2022/12/18 03:56:12;;;;;;;41.15;21.90;;;;;;;;;;4971464;28;20520;-52
2022/12/18 03:58:41;;;;;;;38.88;21.00;;;;;;;;;;5014385;28;20032;-54
2022/12/18 04:01:20;;;;;;;41.80;20.55;;;;;;;;;;5093269;28;20056;-53
2022/12/18 04:03:49;;;;;;;42.50;22.35;;;;;;;;;;5094548;28;20032;-54
2022/12/18 04:06:19;;;;;;;42.13;21.88;;;;;;;;;;5076813;28;20055;-54
2022/12/18 04:08:47;;;;;;;43.80;22.00;;;;;;;;;;5094371;28;20043;-51
2022/12/18 04:11:19;;;;;;;43.05;22.00;;;;;;;;;;5092999;28;20059;-54
2022/12/18 04:13:48;;;;;;;43.63;20.73;;;;;;;;;;5093104;28;20075;-55
2022/12/18 04:16:20;;;;;;;44.25;22.63;;;;;;;;;;5093033;28;20047;-53
2022/12/18 04:18:51;;;;;;;44.13;22.50;;;;;;;;;;5094291;28;20078;-48
2022/12/18 04:21:21;;;;;;;42.67;21.25;;;;;;;;;;5092728;28;20044;-48
2022/12/18 04:23:49;;;;;;;40.50;21.48;;;;;;;;;;5092480;28;20036;-54
2022/12/18 04:26:20;;;;;;;47.00;23.15;;;;;;;;;;5092917;28;20138;-54
2022/12/18 04:29:22;;;;;;;41.92;20.77;;;;;;;;;;5083146;28;20133;-52
2022/12/18 04:31:50;;;;;;;42.95;22.33;;;;;;;;;;5092513;28;20093;-52
2022/12/18 04:34:19;;;;;;;40.78;22.33;;;;;;;;;;5092756;28;20071;-52
2022/12/18 04:36:52;;;;;;;42.40;21.73;;;;;;;;;;5092719;28;20104;-54
2022/12/18 04:39:21;;;;;;;42.90;21.85;;;;;;;;;;5092583;28;20040;-54
2022/12/18 04:41:50;;;;;;;42.75;22.92;;;;;;;;;;5092685;28;20040;-54
2022/12/18 04:44:18;;;;;;;41.33;20.88;;;;;;;;;;5092518;28;20071;-54
2022/12/18 04:46:45;;;;;;;42.28;21.70;;;;;;;;;;5093843;28;20041;-54
2022/12/18 04:49:13;;;;;;;42.90;22.35;;;;;;;;;;5093721;28;20486;-54
2022/12/18 04:51:40;;;;;;;42.75;22.30;;;;;;;;;;5093633;28;20538;-51
2022/12/18 04:54:08;;;;;;;42.17;21.65;;;;;;;;;;5093539;28;20119;-47
2022/12/18 04:56:35;;;;;;;44.15;22.58;;;;;;;;;;5092314;28;20047;-51
2022/12/18 04:59:03;;;;;;;44.90;21.75;;;;;;;;;;5093706;28;20041;-54
2022/12/18 05:01:30;;;;;;;41.47;21.80;;;;;;;;;;5093441;28;20040;-53
2022/12/18 05:04:01;;;;;;;42.70;21.65;;;;;;;;;;5093542;28;20036;-52
2022/12/18 05:06:29;;;;;;;41.00;21.58;;;;;;;;;;5093344;28;20047;-53
2022/12/18 05:08:56;;;;;;;42.67;22.23;;;;;;;;;;5093242;28;20416;-52
2022/12/18 05:11:24;;;;;;;42.58;21.52;;;;;;;;;;5092988;28;20040;-52
2022/12/18 05:13:51;;;;;;;45.15;21.27;;;;;;;;;;5091924;28;20044;-49
2022/12/18 05:16:22;;;;;;;44.92;21.83;;;;;;;;;;5093028;28;20236;-52
2022/12/18 05:18:49;;;;;;;41.90;21.02;;;;;;;;;;5093149;28;20062;-54
2022/12/18 05:21:17;;;;;;;47.83;23.65;;;;;;;;;;5093014;28;20452;-54
2022/12/18 05:23:44;;;;;;;44.60;22.63;;;;;;;;;;5093035;28;20047;-55
2022/12/18 05:26:14;;;;;;;47.00;22.80;;;;;;;;;;5093029;28;20551;-52
2022/12/18 05:28:42;;;;;;;41.70;21.85;;;;;;;;;;5092833;28;20040;-54
2022/12/18 05:31:09;;;;;;;40.45;21.85;;;;;;;;;;5092869;28;20422;-52
2022/12/18 05:33:37;;;;;;;42.38;21.58;;;;;;;;;;5091993;28;20044;-54
2022/12/18 05:36:07;;;;;;;49.67;24.48;;;;;;;;;;5092950;28;20050;-54
2022/12/18 05:38:35;;;;;;;47.17;24.30;;;;;;;;;;5092890;28;20057;-47
2022/12/18 05:41:03;;;;;;;45.22;23.33;;;;;;;;;;5092958;28;20040;-51
2022/12/18 05:43:31;;;;;;;49.30;24.00;;;;;;;;;;5092785;28;20039;-54
2022/12/18 05:45:58;;;;;;;50.80;24.65;;;;;;;;;;5093105;28;20035;-54
2022/12/18 05:48:25;;;;;;;49.03;25.08;;;;;;;;;;5093096;28;20060;-53
2022/12/18 05:50:53;;;;;;;45.67;23.55;;;;;;;;;;5092723;28;20089;-53
2022/12/18 05:53:21;;;;;;;57.60;29.35;;;;;;;;;;5092707;28;20055;-52
2022/12/18 05:55:48;;;;;;;62.55;29.58;;;;;;;;;;5092566;28;20494;-49
2022/12/18 05:58:16;;;;;;;51.67;24.67;;;;;;;;;;5092557;28;20043;-49
2022/12/18 06:00:44;;;;;;;44.42;23.98;;;;;;;;;;5092590;28;20044;-47
2022/12/18 06:03:13;;;;;;;48.70;25.42;;;;;;;;;;5092844;28;20036;-51
2022/12/18 06:05:45;;;;;;;46.88;24.40;;;;;;;;;;5092418;28;20036;-52
2022/12/18 06:08:13;;;;;;;49.20;24.20;;;;;;;;;;5092274;28;20123;-53
2022/12/18 06:10:41;;;;;;;42.90;23.45;;;;;;;;;;5092350;28;20036;-53
2022/12/18 06:13:09;;;;;;;44.40;23.90;;;;;;;;;;5092205;28;20032;-53
2022/12/18 06:15:37;;;;;;;46.15;23.08;;;;;;;;;;5092471;28;20101;-51
2022/12/18 06:18:05;;;;;;;44.85;22.98;;;;;;;;;;5036220;28;20043;-54
2022/12/18 06:20:32;;;;;;;42.47;22.48;;;;;;;;;;5012116;28;20038;-54
2022/12/18 06:23:00;;;;;;;43.05;23.85;;;;;;;;;;5001570;28;20091;-48
2022/12/18 06:25:28;;;;;;;44.42;23.48;;;;;;;;;;5009640;28;20068;-51
2022/12/18 06:27:55;;;;;;;44.95;22.33;;;;;;;;;;5009232;28;20131;-55
2022/12/18 06:30:23;;;;;;;44.50;22.77;;;;;;;;;;4997622;28;20030;-55
2022/12/18 06:32:50;;;;;;;40.95;21.95;;;;;;;;;;4989819;28;20043;-55
2022/12/18 06:35:23;;;;;;;43.75;23.50;;;;;;;;;;4990346;28;20545;-54
2022/12/18 06:37:51;;;;;;;43.00;23.17;;;;;;;;;;4989929;28;20050;-54
2022/12/18 06:40:18;;;;;;;40.35;22.73;;;;;;;;;;4989100;28;20449;-53
2022/12/18 06:42:46;;;;;;;41.83;21.77;;;;;;;;;;4989336;28;20039;-54
2022/12/18 06:45:13;;;;;;;46.28;23.08;;;;;;;;;;4989811;28;20550;-54
2022/12/18 06:47:41;;;;;;;39.22;21.58;;;;;;;;;;4992679;28;20058;-54
2022/12/18 06:50:09;;;;;;;46.72;23.38;;;;;;;;;;4992585;28;20046;-54
2022/12/18 06:52:36;;;;;;;46.53;23.45;;;;;;;;;;4990099;28;20042;-54
2022/12/18 06:55:04;;;;;;;47.25;24.40;;;;;;;;;;4992476;28;20118;-54
2022/12/18 06:57:32;;;;;;;44.58;23.65;;;;;;;;;;4992739;28;20043;-54
2022/12/18 06:59:59;;;;;;;44.83;23.52;;;;;;;;;;4992975;28;20069;-54
2022/12/18 07:02:26;;;;;;;42.35;22.60;;;;;;;;;;4992844;28;20046;-52
2022/12/18 07:04:54;;;;;;;40.88;23.05;;;;;;;;;;4992615;28;20069;-52
2022/12/18 07:07:22;;;;;;;38.28;20.85;;;;;;;;;;4992441;28;20127;-53
2022/12/18 07:09:52;;;;;;;41.28;21.45;;;;;;;;;;4992824;28;20046;-54
2022/12/18 07:12:20;;;;;;;40.28;21.20;;;;;;;;;;4992573;28;20070;-54
2022/12/18 07:14:47;;;;;;;37.55;20.35;;;;;;;;;;4992517;28;20041;-49
2022/12/18 07:17:15;;;;;;;43.42;20.33;;;;;;;;;;4992621;28;20034;-54
2022/12/18 07:19:42;;;;;;;36.35;19.95;;;;;;;;;;4994923;28;20046;-52
2022/12/18 07:22:09;;;;;;;36.65;19.10;;;;;;;;;;4992825;28;20459;-54
2022/12/18 07:24:37;;;;;;;35.45;18.63;;;;;;;;;;4992332;28;20034;-54
2022/12/18 07:27:04;;;;;;;37.03;20.00;;;;;;;;;;4992323;28;20502;-52
2022/12/18 07:29:34;;;;;;;35.47;20.17;;;;;;;;;;4991308;28;20559;-59
2022/12/18 07:32:01;;;;;;;35.88;19.70;;;;;;;;;;4992457;28;20046;-58
2022/12/18 07:34:29;;;;;;;38.05;20.02;;;;;;;;;;4991071;28;20037;-58
2022/12/18 07:36:56;;;;;;;39.00;20.55;;;;;;;;;;4991937;28;21621;-58
2022/12/18 07:39:24;;;;;;;33.38;19.80;;;;;;;;;;4992354;28;20034;-58
2022/12/18 07:44:40;;;;;;;41.42;20.55;;;;;;;;;;4992339;28;20090;-58
2022/12/18 07:47:07;;;;;;;39.22;20.13;;;;;;;;;;4992158;28;20050;-58
2022/12/18 07:49:38;;;;;;;40.42;21.20;;;;;;;;;;4992345;28;20100;-59
2022/12/18 07:52:06;;;;;;;39.55;21.05;;;;;;;;;;4991916;28;20042;-59
2022/12/18 07:54:33;;;;;;;37.38;20.35;;;;;;;;;;4994256;28;20038;-60
2022/12/18 07:57:01;;;;;;;34.30;20.73;;;;;;;;;;4992901;28;20042;-58
2022/12/18 07:59:28;;;;;;;38.13;21.35;;;;;;;;;;4990633;28;20034;-58
2022/12/18 08:01:56;;;;;;;35.60;19.05;;;;;;;;;;5005387;28;20129;-59
2022/12/18 08:04:23;;;;;;;33.88;18.63;;;;;;;;;;5006882;28;20099;-58
2022/12/18 08:06:51;;;;;;;37.72;20.70;;;;;;;;;;5011579;28;20434;-58
2022/12/18 08:09:18;;;;;;;32.38;18.10;;;;;;;;;;5011393;28;20042;-58
2022/12/18 08:11:46;;;;;;;33.58;19.23;;;;;;;;;;5010169;28;20042;-58
2022/12/18 08:14:14;;;;;;;35.78;19.75;;;;;;;;;;5003686;28;20502;-55
2022/12/18 08:16:42;;;;;;;37.47;19.50;;;;;;;;;;5010766;28;20045;-54
2022/12/18 08:19:09;;;;;;;32.65;18.85;;;;;;;;;;5011202;28;20495;-53
2022/12/18 08:21:37;;;;;;;39.40;19.90;;;;;;;;;;5011064;28;20041;-54
2022/12/18 08:24:05;;;;;;;32.50;19.33;;;;;;;;;;5011216;28;20076;-55
2022/12/18 08:26:32;;;;;;;34.33;18.90;;;;;;;;;;5011236;28;20503;-55
2022/12/18 08:29:00;;;;;;;35.67;19.08;;;;;;;;;;5011032;28;20081;-55
2022/12/18 08:31:28;;;;;;;35.95;19.05;;;;;;;;;;5011023;28;20060;-55
2022/12/18 08:33:57;;;;;;;38.95;19.33;;;;;;;;;;5011151;28;20368;-54
2022/12/18 08:36:25;;;;;;;39.40;19.35;;;;;;;;;;5010923;28;20125;-54
2022/12/18 08:38:53;;;;;;;35.65;19.15;;;;;;;;;;5009432;28;20437;-53
2022/12/18 08:41:21;;;;;;;35.05;19.63;;;;;;;;;;5010176;28;20054;-52
2022/12/18 08:46:36;;;;;;;37.80;19.75;;;;;;;;;;5010711;28;20083;-55
2022/12/18 08:49:05;;;;;;;37.30;18.73;;;;;;;;;;5008854;28;20065;-55
2022/12/18 08:51:33;;;;;;;34.25;19.48;;;;;;;;;;5012317;28;20089;-57
2022/12/18 08:54:00;;;;;;;35.05;18.00;;;;;;;;;;5093697;28;20040;-55
2022/12/18 08:56:29;;;;;;;34.08;18.67;;;;;;;;;;5010536;28;20496;-55
2022/12/18 08:58:57;;;;;;;36.33;19.25;;;;;;;;;;4990709;28;20100;-55
2022/12/18 09:01:25;;;;;;;34.28;19.27;;;;;;;;;;4981299;28;20039;-56
2022/12/18 09:03:53;;;;;;;33.13;18.88;;;;;;;;;;4996688;28;20044;-55
2022/12/18 09:06:21;;;;;;;32.47;19.35;;;;;;;;;;4974600;28;20437;-49
2022/12/18 09:08:48;;;;;;;32.30;19.52;;;;;;;;;;4990178;28;20050;-53
2022/12/18 09:11:20;;;;;;;33.80;19.25;;;;;;;;;;4977572;28;20446;-50
2022/12/18 09:13:47;;;;;;;35.35;19.40;;;;;;;;;;4990607;28;20061;-54
2022/12/18 09:16:15;;;;;;;33.40;19.55;;;;;;;;;;4990674;28;20122;-54
2022/12/18 09:18:43;;;;;;;35.85;20.77;;;;;;;;;;4979458;28;20047;-51
2022/12/18 09:21:12;;;;;;;31.27;18.33;;;;;;;;;;4988459;28;20104;-54
2022/12/18 09:23:39;;;;;;;34.80;19.80;;;;;;;;;;4990330;28;20073;-54
2022/12/18 09:26:07;;;;;;;33.03;19.02;;;;;;;;;;4990292;28;20034;-55
2022/12/18 09:28:34;;;;;;;34.80;20.00;;;;;;;;;;4989903;28;20061;-55
2022/12/18 09:31:07;;;;;;;34.92;19.83;;;;;;;;;;4982721;28;20039;-56
2022/12/18 09:33:36;;;;;;;32.88;19.35;;;;;;;;;;4970659;28;20053;-50
2022/12/18 09:36:04;;;;;;;33.38;19.08;;;;;;;;;;4976662;28;20050;-55
2022/12/18 09:38:32;;;;;;;31.95;18.42;;;;;;;;;;4990574;28;20125;-56
2022/12/18 09:41:19;;;;;;;34.00;19.20;;;;;;;;;;4990090;28;20384;-55
2022/12/18 09:43:50;;;;;;;40.50;20.27;;;;;;;;;;4996335;28;20108;-55
2022/12/18 09:46:28;;;;;;;31.60;19.20;;;;;;;;;;4986379;28;20133;-55
2022/12/18 09:49:01;;;;;;;33.38;19.40;;;;;;;;;;4989998;28;20065;-56
2022/12/18 09:51:37;;;;;;;32.50;18.27;;;;;;;;;;4985878;28;20385;-56
2022/12/18 09:54:11;;;;;;;34.55;19.42;;;;;;;;;;4970510;28;20093;-55
2022/12/18 09:56:41;;;;;;;36.27;19.80;;;;;;;;;;4981049;28;20129;-55
2022/12/18 09:59:29;;;;;;;37.00;20.10;;;;;;;;;;4989824;28;20039;-55
2022/12/18 10:01:57;;;;;;;38.42;20.40;;;;;;;;;;4989507;28;20061;-53
2022/12/18 10:04:29;;;;;;;33.50;19.02;;;;;;;;;;4990359;28;20031;-54
2022/12/18 10:07:02;;;;;;;38.00;21.73;;;;;;;;;;4989971;28;20050;-54
2022/12/18 10:09:42;;;;;;;38.47;21.13;;;;;;;;;;4983019;28;20104;-54
2022/12/18 10:12:19;;;;;;;36.00;20.15;;;;;;;;;;4989668;28;20038;-54
2022/12/18 10:15:14;;;;;;;34.00;20.30;;;;;;;;;;4989569;28;20054;-52
2022/12/18 10:17:55;;;;;;;32.67;18.50;;;;;;;;;;4987920;28;20117;-53
2022/12/18 10:20:44;;;;;;;38.88;21.35;;;;;;;;;;4987099;28;20038;-55
2022/12/18 10:23:33;;;;;;;37.33;20.02;;;;;;;;;;4992619;28;20080;-52
2022/12/18 10:26:03;;;;;;;34.00;19.55;;;;;;;;;;4982657;28;20392;-51
2022/12/18 10:28:31;;;;;;;31.35;19.38;;;;;;;;;;4975139;28;20086;-48
2022/12/18 10:30:59;;;;;;;39.72;20.67;;;;;;;;;;4983634;28;20030;-52
2022/12/18 10:33:31;;;;;;;36.67;21.88;;;;;;;;;;4976875;28;20046;-56
2022/12/18 10:35:59;;;;;;;31.70;18.35;;;;;;;;;;4973669;28;20046;-50
2022/12/18 10:38:28;;;;;;;35.30;19.75;;;;;;;;;;4975219;28;20051;-54
2022/12/18 10:41:00;;;;;;;30.80;18.10;;;;;;;;;;4980227;28;20442;-54
2022/12/18 10:43:28;;;;;;;32.85;17.33;;;;;;;;;;4977630;28;20492;-52
2022/12/18 10:46:07;;;;;;;31.10;18.60;;;;;;;;;;4989808;28;20104;-54
2022/12/18 10:48:37;;;;;;;26.95;16.38;;;;;;;;;;4977492;28;20488;-53
2022/12/18 10:51:06;;;;;;;32.45;18.48;;;;;;;;;;4979521;28;20055;-54
2022/12/18 10:53:41;;;;;;;29.17;17.60;;;;;;;;;;4979132;28;20046;-54
2022/12/18 10:56:09;;;;;;;30.25;16.27;;;;;;;;;;4977416;28;20107;-51
2022/12/18 10:58:37;;;;;;;29.65;17.80;;;;;;;;;;4983396;28;20113;-54
2022/12/18 11:01:09;;;;;;;30.35;17.92;;;;;;;;;;4979620;28;20050;-50
2022/12/18 11:03:37;;;;;;;32.28;17.50;;;;;;;;;;4975127;28;20031;-55
2022/12/18 11:06:24;;;;;;;32.78;18.63;;;;;;;;;;4991489;28;20069;-55
2022/12/18 11:09:02;;;;;;;30.15;18.13;;;;;;;;;;4989610;28;20039;-51
2022/12/18 11:11:38;;;;;;;30.52;18.30;;;;;;;;;;4984286;28;20042;-54
2022/12/18 11:14:07;;;;;;;38.10;20.33;;;;;;;;;;4992283;28;20039;-54
2022/12/18 11:16:43;;;;;;;31.67;17.00;;;;;;;;;;4991215;28;20147;-47
2022/12/18 11:19:35;;;;;;;32.30;18.77;;;;;;;;;;4972857;28;20101;-54
2022/12/18 11:22:04;;;;;;;34.53;19.67;;;;;;;;;;4978715;28;20042;-54
2022/12/18 11:24:34;;;;;;;30.92;18.85;;;;;;;;;;4992197;28;20045;-50
2022/12/18 11:27:03;;;;;;;34.88;18.98;;;;;;;;;;4990802;28;20059;-52
2022/12/18 11:29:33;;;;;;;37.33;20.83;;;;;;;;;;4992217;28;20442;-55
2022/12/18 11:32:20;;;;;;;40.38;22.48;;;;;;;;;;4992125;28;20034;-55
2022/12/18 11:34:51;;;;;;;32.30;19.02;;;;;;;;;;4991617;28;20457;-55
2022/12/18 11:37:25;;;;;;;40.35;21.77;;;;;;;;;;4992171;28;20121;-51
2022/12/18 11:39:56;;;;;;;33.90;19.08;;;;;;;;;;4992617;28;20061;-55
2022/12/18 11:42:23;;;;;;;31.05;18.95;;;;;;;;;;4990673;28;20064;-55
2022/12/18 11:44:58;;;;;;;38.60;21.40;;;;;;;;;;4990711;28;20157;-58
2022/12/18 11:47:25;;;;;;;36.75;20.73;;;;;;;;;;4992197;28;20065;-54
2022/12/18 11:49:53;;;;;;;30.92;17.52;;;;;;;;;;4991720;28;20076;-53
2022/12/18 11:52:40;;;;;;;30.02;17.25;;;;;;;;;;4991760;28;20042;-54
2022/12/18 11:55:12;;;;;;;32.53;18.48;;;;;;;;;;4991820;28;20102;-54
2022/12/18 11:57:53;;;;;;;31.70;18.75;;;;;;;;;;4991691;28;20061;-53
2022/12/18 12:00:21;;;;;;;32.17;19.38;;;;;;;;;;4991891;28;20133;-55
2022/12/18 12:03:07;;;;;;;30.23;17.83;;;;;;;;;;4972466;28;20130;-54
2022/12/18 12:05:53;;;;;;;32.45;19.33;;;;;;;;;;4972254;28;20058;-55
2022/12/18 12:08:21;;;;;;;32.92;18.17;;;;;;;;;;4979176;28;20042;-54
2022/12/18 12:10:51;;;;;;;35.97;20.40;;;;;;;;;;4977714;28;20035;-53
2022/12/18 12:13:25;;;;;;;34.90;20.13;;;;;;;;;;4991569;28;20043;-55
2022/12/18 12:16:05;;;;;;;36.72;19.40;;;;;;;;;;4991588;28;20061;-50
2022/12/18 12:18:48;;;;;;;32.85;18.02;;;;;;;;;;4991463;28;20039;-55
2022/12/18 12:21:35;;;;;;;34.15;18.88;;;;;;;;;;4991040;28;20396;-56
2022/12/18 12:24:21;;;;;;;34.28;18.40;;;;;;;;;;4974164;28;20485;-54
2022/12/18 12:26:48;;;;;;;33.65;19.45;;;;;;;;;;4983233;28;20511;-54
2022/12/18 12:29:24;;;;;;;37.72;21.23;;;;;;;;;;4991403;28;20115;-55
2022/12/18 12:31:52;;;;;;;35.22;21.02;;;;;;;;;;4991206;28;20503;-55
2022/12/18 12:34:25;;;;;;;37.13;20.00;;;;;;;;;;4991416;28;20442;-53
2022/12/18 12:37:11;;;;;;;38.88;21.92;;;;;;;;;;4991171;28;20081;-54
2022/12/18 12:39:40;;;;;;;38.70;20.30;;;;;;;;;;4991028;28;20050;-54
2022/12/18 12:45:38;;;;;;;34.53;19.30;;;;;;;;;;4978462;28;20058;-55
2022/12/18 12:48:07;;;;;;;31.05;18.70;;;;;;;;;;4991300;28;20095;-51
2022/12/18 12:50:34;;;;;;;39.95;21.15;;;;;;;;;;4984608;28;20117;-54
2022/12/18 12:53:06;;;;;;;39.13;21.38;;;;;;;;;;4986700;28;20035;-55
2022/12/18 12:55:34;;;;;;;39.72;23.05;;;;;;;;;;4971439;28;20061;-54
2022/12/18 12:58:16;;;;;;;47.47;28.95;;;;;;;;;;4984668;28;20099;-56
2022/12/18 13:01:02;;;;;;;45.40;25.45;;;;;;;;;;4990997;28;20042;-56
2022/12/18 13:03:35;;;;;;;42.85;23.85;;;;;;;;;;4990489;28;20127;-52
2022/12/18 13:06:09;;;;;;;43.38;23.88;;;;;;;;;;4990062;28;20077;-57
2022/12/18 13:08:53;;;;;;;40.70;22.75;;;;;;;;;;4988506;28;20163;-56
2022/12/18 13:14:29;;;;;;;43.63;23.63;;;;;;;;;;4999379;28;20122;-51
2022/12/18 13:17:15;;;;;;;43.80;24.23;;;;;;;;;;4989660;28;20125;-54
2022/12/18 13:19:44;;;;;;;43.78;23.95;;;;;;;;;;4990413;28;20057;-54
2022/12/18 13:22:23;;;;;;;50.30;26.98;;;;;;;;;;4990822;28;20042;-54
2022/12/18 13:24:51;;;;;;;46.13;26.42;;;;;;;;;;5022164;28;20053;-55
2022/12/18 13:27:38;;;;;;;40.85;24.05;;;;;;;;;;4990355;28;20050;-55
2022/12/18 13:30:25;;;;;;;53.85;28.70;;;;;;;;;;4990418;28;20140;-52
2022/12/18 13:33:17;;;;;;;44.53;23.38;;;;;;;;;;4990615;28;20042;-51
2022/12/18 13:35:44;;;;;;;43.00;23.30;;;;;;;;;;5008277;28;20050;-55
2022/12/18 13:38:33;;;;;;;83.30;42.15;;;;;;;;;;4990405;28;20058;-55
2022/12/18 13:41:02;;;;;;;51.38;27.92;;;;;;;;;;4990549;28;20630;-55
2022/12/18 13:43:33;;;;;;;52.50;31.38;;;;;;;;;;4990415;28;20415;-55
2022/12/18 13:46:02;;;;;;;49.78;25.00;;;;;;;;;;4990558;28;20037;-55
2022/12/18 13:48:32;;;;;;;90.43;42.10;;;;;;;;;;4990480;28;20042;-56
2022/12/18 13:50:59;;;;;;;69.85;36.83;;;;;;;;;;4990453;28;20547;-54
2022/12/18 13:53:28;;;;;;;56.33;28.40;;;;;;;;;;4990285;28;20439;-52
2022/12/18 13:55:56;;;;;;;51.10;27.65;;;;;;;;;;4988371;28;20072;-54
2022/12/18 13:58:24;;;;;;;51.17;29.05;;;;;;;;;;4988336;28;20515;-56
2022/12/18 14:00:51;;;;;;;54.70;27.63;;;;;;;;;;4989104;28;20046;-54
2022/12/18 14:03:21;;;;;;;55.45;28.17;;;;;;;;;;4989169;28;20050;-55
2022/12/18 14:05:57;;;;;;;50.28;23.92;;;;;;;;;;4989601;28;20526;-55
2022/12/18 14:08:33;;;;;;;51.70;25.48;;;;;;;;;;4989876;28;20484;-55
2022/12/18 14:11:01;;;;;;;48.65;24.50;;;;;;;;;;4989997;28;20117;-55
2022/12/18 14:13:31;;;;;;;53.75;27.50;;;;;;;;;;4990148;28;20074;-54
2022/12/18 14:16:00;;;;;;;60.00;29.30;;;;;;;;;;4990103;28;20085;-56
2022/12/18 14:18:30;;;;;;;50.88;28.00;;;;;;;;;;4990175;28;20068;-55
2022/12/18 14:20:59;;;;;;;81.28;37.90;;;;;;;;;;4988791;28;20125;-53
2022/12/18 14:23:26;;;;;;;56.75;28.02;;;;;;;;;;4990461;28;20064;-54
2022/12/18 14:25:53;;;;;;;79.38;42.15;;;;;;;;;;4989983;28;20047;-54
2022/12/18 14:28:25;;;;;;;186.48;93.90;;;;;;;;;;4989755;28;20057;-56
2022/12/18 14:30:54;;;;;;;249.10;118.78;;;;;;;;;;4989836;28;20091;-53
2022/12/18 14:33:25;;;;;;;124.18;67.68;;;;;;;;;;4989600;28;20054;-50
2022/12/18 14:36:03;;;;;;;69.35;35.30;;;;;;;;;;4999086;28;20078;-54
2022/12/18 14:38:34;;;;;;;60.92;30.67;;;;;;;;;;4991544;28;20495;-54
2022/12/18 14:41:03;;;;;;;70.07;33.20;;;;;;;;;;4994233;28;20053;-55
2022/12/18 14:43:32;;;;;;;57.17;27.50;;;;;;;;;;4989124;28;20038;-55
2022/12/18 14:46:00;;;;;;;60.08;30.58;;;;;;;;;;4988923;28;20144;-55
2022/12/18 14:48:38;;;;;;;69.25;35.83;;;;;;;;;;4989193;28;20514;-51
2022/12/18 14:51:07;;;;;;;68.85;35.22;;;;;;;;;;4989653;28;20403;-54